Port St. Joe, FL (32456)

6:59 PM EST on December 26, 2014 (GMT -0500)
APRSWXNET Port St. Joe FL US | Change Station
CLOSE
Current Station
Personal Weather Station
Location: Port Saint Joe, FL
Elevation: 18 ft
Nearby Weather Stations
Active Advisory: Flood Warning

Elev 18 ft 29.81 °N, 85.29 °W | Updated 27 minutes ago

Clear
Clear
55 °F
Feels Like 55 °F
N
0
Wind Variable Wind from South
Gusts 0.0 mph

Today
High -- | Low -- °F
--% Chance of Precip.
Yesterday
High -- | Low -- °F
Precip. -- in
7:34 AM 5:49 PM
Waxing Crescent, 30% visible
Pressure 30.25 in
Visibility 10.0 miles
Clouds Clear
Dew Point 50 °F
Humidity 82%
Rainfall -999.00 in
Snow Depth Not available.
UV 0 out of 12
Pollen 2.70 out of 12
Air Quality Not available.
Flu Activity Not available.
METAR KTDR 262356Z AUTO 08001KT 10SM CLR 12/10 A3023 RMK AO2 SLP241 T01180099 10190 20117 52005

More Conditions Fewer Conditions

Pressure 30.25 in
Visibility 10.0 miles
Clouds Clear
Dew Point 50 °F
Humidity 82%
Rainfall -999.00 in
Snow Depth Not available.
UV 0 out of 12
Pollen 2.70 out of 12
Air Quality Not available.
Flu Activity Not available.
METAR KTDR 262356Z AUTO 08001KT 10SM CLR 12/10 A3023 RMK AO2 SLP241 T01180099 10190 20117 52005

More Conditions Fewer Conditions

10-Day Weather Forecast

Almanac

Astronomy

Dec. 26, 2014 Rise Set
Actual Time
Civil Twilight
Nautical Twilight
Astronomical Twilight
Moon
Length of Visible Light
Length of Day
Tomorrow will be .
, % of the Moon is Illuminated

Today's Extremes

State Highs State Lows

Community

WunderPhotos

Upload Photos

1,780,769 photos uploaded!

WunderBlogs® & News

Nearby

Air Quality

  Air Quality AQ Index Pollutant
Not available.

Snow Depth

Station Depth Elevation

Earthquake Activity

City Distance Mag. Time & Date
Minimum magnitude displayed is 2.5.

Coastal Water Temperatures

Place Temperature

Nearby Weather Stations